sensor_id;sensor_type;location;lat;lon;timestamp;temperature;humidity
14307;DHT22;7237;49.500;11.400;2023-03-31T18:46:46;10.30;99.90
14307;DHT22;7237;49.500;11.400;2023-03-31T18:49:12;10.60;99.90
14307;DHT22;7237;49.500;11.400;2023-03-31T18:51:41;10.30;99.90
14307;DHT22;7237;49.500;11.400;2023-03-31T18:54:07;10.20;99.90
14307;DHT22;7237;49.500;11.400;2023-03-31T18:56:34;10.20;99.90
14307;DHT22;7237;49.500;11.400;2023-03-31T18:59:01;10.20;99.90
14307;DHT22;7237;49.500;11.400;2023-03-31T19:01:29;10.30;99.90
14307;DHT22;7237;49.500;11.400;2023-03-31T19:03:56;10.20;99.90
14307;DHT22;7237;49.500;11.400;2023-03-31T19:06:23;10.20;99.90
14307;DHT22;7237;49.500;11.400;2023-03-31T19:08:51;10.20;99.90
14307;DHT22;7237;49.500;11.400;2023-03-31T19:11:20;10.20;99.90
14307;DHT22;7237;49.500;11.400;2023-03-31T19:13:47;10.10;99.90
14307;DHT22;7237;49.500;11.400;2023-03-31T19:16:14;10.10;99.90
14307;DHT22;7237;49.500;11.400;2023-03-31T19:18:41;10.20;99.90
14307;DHT22;7237;49.500;11.400;2023-03-31T19:21:09;9.90;99.90
14307;DHT22;7237;49.500;11.400;2023-03-31T19:23:36;9.80;99.90
14307;DHT22;7237;49.500;11.400;2023-03-31T19:26:04;9.80;99.90
14307;DHT22;7237;49.500;11.400;2023-03-31T19:28:31;9.90;99.90
14307;DHT22;7237;49.500;11.400;2023-03-31T19:31:01;9.90;99.90
14307;DHT22;7237;49.500;11.400;2023-03-31T19:33:27;9.90;99.90
14307;DHT22;7237;49.500;11.400;2023-03-31T19:35:54;9.90;99.90
14307;DHT22;7237;49.500;11.400;2023-03-31T19:38:22;9.80;99.90
14307;DHT22;7237;49.500;11.400;2023-03-31T19:40:50;9.90;99.90
14307;DHT22;7237;49.500;11.400;2023-03-31T19:43:19;9.90;99.90
14307;DHT22;7237;49.500;11.400;2023-03-31T19:45:48;9.90;99.90
14307;DHT22;7237;49.500;11.400;2023-03-31T19:48:15;9.80;99.90
14307;DHT22;7237;49.500;11.400;2023-03-31T19:50:45;9.30;99.90
14307;DHT22;7237;49.500;11.400;2023-03-31T19:53:12;10.30;99.90
14307;DHT22;7237;49.500;11.400;2023-03-31T19:55:39;9.80;99.90
14307;DHT22;7237;49.500;11.400;2023-03-31T19:58:07;9.80;99.90
14307;DHT22;7237;49.500;11.400;2023-03-31T20:00:35;9.90;99.90
14307;DHT22;7237;49.500;11.400;2023-03-31T20:03:03;9.80;99.90
14307;DHT22;7237;49.500;11.400;2023-03-31T20:05:30;9.50;99.90
14307;DHT22;7237;49.500;11.400;2023-03-31T20:07:57;9.80;99.90
14307;DHT22;7237;49.500;11.400;2023-03-31T20:10:24;9.80;99.90
14307;DHT22;7237;49.500;11.400;2023-03-31T20:12:51;9.60;99.90
14307;DHT22;7237;49.500;11.400;2023-03-31T20:15:18;9.80;99.90
14307;DHT22;7237;49.500;11.400;2023-03-31T20:17:46;9.80;99.90
14307;DHT22;7237;49.500;11.400;2023-03-31T20:20:13;9.80;99.90
14307;DHT22;7237;49.500;11.400;2023-03-31T20:22:39;9.80;99.90
14307;DHT22;7237;49.500;11.400;2023-03-31T20:25:07;9.80;99.90
14307;DHT22;7237;49.500;11.400;2023-03-31T20:27:34;9.60;99.90
14307;DHT22;7237;49.500;11.400;2023-03-31T20:30:00;9.80;99.90
14307;DHT22;7237;49.500;11.400;2023-03-31T20:32:27;9.80;99.90
14307;DHT22;7237;49.500;11.400;2023-03-31T20:34:55;9.80;99.90
14307;DHT22;7237;49.500;11.400;2023-03-31T20:37:22;9.80;99.90
14307;DHT22;7237;49.500;11.400;2023-03-31T20:39:49;9.70;99.90
14307;DHT22;7237;49.500;11.400;2023-03-31T20:42:16;9.80;99.90
14307;DHT22;7237;49.500;11.400;2023-03-31T20:44:43;9.90;99.90
14307;DHT22;7237;49.500;11.400;2023-03-31T20:47:10;9.70;99.90
14307;DHT22;7237;49.500;11.400;2023-03-31T20:49:37;9.70;99.90
14307;DHT22;7237;49.500;11.400;2023-03-31T20:52:05;9.70;99.90
14307;DHT22;7237;49.500;11.400;2023-03-31T20:54:31;9.60;99.90
14307;DHT22;7237;49.500;11.400;2023-03-31T20:56:58;9.40;99.90
14307;DHT22;7237;49.500;11.400;2023-03-31T20:59:29;9.50;99.90
14307;DHT22;7237;49.500;11.400;2023-03-31T21:01:56;9.30;99.90
14307;DHT22;7237;49.500;11.400;2023-03-31T21:04:24;9.20;99.90
14307;DHT22;7237;49.500;11.400;2023-03-31T21:06:51;9.30;99.90
14307;DHT22;7237;49.500;11.400;2023-03-31T21:09:20;9.20;99.90
14307;DHT22;7237;49.500;11.400;2023-03-31T21:11:48;9.10;99.90
14307;DHT22;7237;49.500;11.400;2023-03-31T21:14:15;9.00;99.90
14307;DHT22;7237;49.500;11.400;2023-03-31T21:16:42;9.00;99.90
14307;DHT22;7237;49.500;11.400;2023-03-31T21:19:09;8.70;99.90
14307;DHT22;7237;49.500;11.400;2023-03-31T21:21:36;8.90;99.90
14307;DHT22;7237;49.500;11.400;2023-03-31T21:24:06;8.80;99.90
14307;DHT22;7237;49.500;11.400;2023-03-31T21:26:34;8.60;99.90
14307;DHT22;7237;49.500;11.400;2023-03-31T21:29:00;8.60;99.90
14307;DHT22;7237;49.500;11.400;2023-03-31T21:31:27;8.60;99.90
14307;DHT22;7237;49.500;11.400;2023-03-31T21:33:54;8.40;99.90
14307;DHT22;7237;49.500;11.400;2023-03-31T21:36:22;8.50;99.90
14307;DHT22;7237;49.500;11.400;2023-03-31T21:38:50;8.50;99.90
14307;DHT22;7237;49.500;11.400;2023-03-31T21:41:19;8.60;99.90
14307;DHT22;7237;49.500;11.400;2023-03-31T21:43:48;8.50;99.90
14307;DHT22;7237;49.500;11.400;2023-03-31T21:46:16;8.60;99.90
14307;DHT22;7237;49.500;11.400;2023-03-31T21:48:43;8.80;99.90
14307;DHT22;7237;49.500;11.400;2023-03-31T21:51:10;8.70;99.90
14307;DHT22;7237;49.500;11.400;2023-03-31T21:53:38;8.50;99.90
14307;DHT22;7237;49.500;11.400;2023-03-31T21:56:04;8.50;99.90
14307;DHT22;7237;49.500;11.400;2023-03-31T21:58:32;8.70;99.90
14307;DHT22;7237;49.500;11.400;2023-03-31T22:01:01;8.40;99.90
14307;DHT22;7237;49.500;11.400;2023-03-31T22:03:29;8.50;99.90
14307;DHT22;7237;49.500;11.400;2023-03-31T22:05:59;8.40;99.90
14307;DHT22;7237;49.500;11.400;2023-03-31T22:08:26;8.50;99.90
14307;DHT22;7237;49.500;11.400;2023-03-31T22:10:54;8.40;99.90
14307;DHT22;7237;49.500;11.400;2023-03-31T22:13:22;8.40;99.90
14307;DHT22;7237;49.500;11.400;2023-03-31T22:15:49;8.60;99.90
14307;DHT22;7237;49.500;11.400;2023-03-31T22:18:18;8.50;99.90
14307;DHT22;7237;49.500;11.400;2023-03-31T22:20:45;8.60;99.90
14307;DHT22;7237;49.500;11.400;2023-03-31T22:23:12;9.10;99.90
14307;DHT22;7237;49.500;11.400;2023-03-31T22:25:39;8.50;99.90
14307;DHT22;7237;49.500;11.400;2023-03-31T22:28:06;8.50;99.90
14307;DHT22;7237;49.500;11.400;2023-03-31T22:30:33;8.30;99.90
14307;DHT22;7237;49.500;11.400;2023-03-31T22:33:01;8.40;99.90
14307;DHT22;7237;49.500;11.400;2023-03-31T22:35:29;8.90;99.90
14307;DHT22;7237;49.500;11.400;2023-03-31T22:37:56;8.50;99.90
14307;DHT22;7237;49.500;11.400;2023-03-31T22:40:23;8.60;99.90
14307;DHT22;7237;49.500;11.400;2023-03-31T22:42:50;8.50;99.90
14307;DHT22;7237;49.500;11.400;2023-03-31T22:45:19;8.50;99.90
14307;DHT22;7237;49.500;11.400;2023-03-31T22:47:45;8.60;99.90
14307;DHT22;7237;49.500;11.400;2023-03-31T22:50:12;8.40;99.90
14307;DHT22;7237;49.500;11.400;2023-03-31T22:52:40;8.50;99.90
14307;DHT22;7237;49.500;11.400;2023-03-31T22:55:09;8.50;99.90
14307;DHT22;7237;49.500;11.400;2023-03-31T22:57:36;8.30;99.90
14307;DHT22;7237;49.500;11.400;2023-03-31T23:00:03;8.50;99.90
14307;DHT22;7237;49.500;11.400;2023-03-31T23:02:30;8.80;99.90
14307;DHT22;7237;49.500;11.400;2023-03-31T23:04:57;8.50;99.90
14307;DHT22;7237;49.500;11.400;2023-03-31T23:07:24;8.60;99.90
14307;DHT22;7237;49.500;11.400;2023-03-31T23:09:53;8.50;99.90
14307;DHT22;7237;49.500;11.400;2023-03-31T23:12:20;8.40;99.90
14307;DHT22;7237;49.500;11.400;2023-03-31T23:14:46;8.50;99.90
14307;DHT22;7237;49.500;11.400;2023-03-31T23:17:13;8.50;99.90
14307;DHT22;7237;49.500;11.400;2023-03-31T23:19:40;8.40;99.90
14307;DHT22;7237;49.500;11.400;2023-03-31T23:22:07;8.30;99.90
14307;DHT22;7237;49.500;11.400;2023-03-31T23:24:34;8.30;99.90
14307;DHT22;7237;49.500;11.400;2023-03-31T23:27:02;8.20;99.90
14307;DHT22;7237;49.500;11.400;2023-03-31T23:29:29;8.20;99.90
14307;DHT22;7237;49.500;11.400;2023-03-31T23:31:56;8.30;99.90
14307;DHT22;7237;49.500;11.400;2023-03-31T23:34:22;8.10;99.90
14307;DHT22;7237;49.500;11.400;2023-03-31T23:36:49;8.10;99.90
14307;DHT22;7237;49.500;11.400;2023-03-31T23:39:16;8.10;99.90
14307;DHT22;7237;49.500;11.400;2023-03-31T23:41:43;8.00;99.90
14307;DHT22;7237;49.500;11.400;2023-03-31T23:44:11;8.00;99.90
14307;DHT22;7237;49.500;11.400;2023-03-31T23:46:38;8.00;99.90
14307;DHT22;7237;49.500;11.400;2023-03-31T23:49:07;8.10;99.90
14307;DHT22;7237;49.500;11.400;2023-03-31T23:51:34;8.10;99.90
14307;DHT22;7237;49.500;11.400;2023-03-31T23:54:00;8.10;99.90
14307;DHT22;7237;49.500;11.400;2023-03-31T23:56:27;8.10;99.90
14307;DHT22;7237;49.500;11.400;2023-03-31T23:58:55;8.00;99.90
